Flight Track Log - Related Links

Times and Time Zones

All times are in EDT time to prevent confusion due to time zone crossing. See the N6569M flight status page for this flight to view local times or setup timezone preferences in your user account.

Time Position Orientation Groundspeed Altitude Reporting Facility
EDT Latitude Longitude Course Direction KTS MPH feet Rate Location/Type
Sun 07:34:22 PM 29.7636 -97.1133 91° East 117 135 5,500  Level Houston Center
Sun 07:34:59 PM 29.7639 -97.0894 89° East 120 138 5,600 58 Climbing Houston Center
Sun 07:36:05 PM 29.7608 -97.0489 95° East 123 142 5,600  Level Houston Center
Sun 07:37:07 PM 29.7575 -97.0083 95° East 118 136 5,600 -49 Level Houston Center
Sun 07:38:08 PM 29.7608 -96.9694 84° East 118 136 5,500 -49 Descending Houston Center
Sun 07:39:00 PM 29.8480 -97.4277 91° East  Level Estimated
Sun 07:39:09 PM 29.7664 -96.9328 80° East 119 137 5,500  Level Houston Center
Sun 07:40:04 PM 29.7697 -96.8964 84° East 118 136 5,500  Level Houston Center
Sun 07:41:05 PM 29.7708 -96.8603 88° East 120 138 5,500  Level Houston Center
Sun 07:42:06 PM 29.7739 -96.8192 85° East 121 139 5,500  Level Houston Center
Sun 07:43:08 PM 29.7769 -96.7781 85° East 123 142 5,500 -49 Level Houston Center
Sun 07:44:09 PM 29.7758 -96.7394 92° East 124 143 5,400 -49 Descending Houston Center
Sun 07:45:10 PM 29.7767 -96.6986 89° East 123 142 5,400 49 Level Houston Center
Sun 07:46:11 PM 29.7756 -96.6578 92° East 124 143 5,500  Climbing Houston Center
Sun 07:47:12 PM 29.7767 -96.6192 88° East 123 142 5,400 -49 Descending Houston Center
Sun 07:48:13 PM 29.7775 -96.5783 89° East 124 143 5,400  Level Houston Center
Sun 07:49:15 PM 29.7803 -96.5372 86° East 123 142 5,400 49 Level Houston Center
Sun 07:50:15 PM 29.7814 -96.4986 88° East 124 143 5,500 99 Climbing Houston Center
Sun 07:51:16 PM 29.7844 -96.4597 85° East 118 136 5,600 49 Climbing Houston Center
Sun 07:52:17 PM 29.7850 -96.4189 89° East 126 145 5,600 -49 Level Houston Center
Sun 07:53:18 PM 29.7858 -96.3778 89° East 130 150 5,500  Descending Houston Center
Sun 07:54:19 PM 29.7864 -96.3344 89° East 127 146 5,600  Climbing Houston Center
Sun 07:55:20 PM 29.7872 -96.2933 89° East 125 144 5,500 -98 Descending Houston Center
Sun 07:56:21 PM 29.7881 -96.2550 89° East 125 144 5,400  Descending Houston Center
Sun 07:57:22 PM 29.7931 -96.2133 82° East 123 142 5,500 -49 Climbing Houston Center
Sun 07:58:23 PM 29.8000 -96.1742 78° East 128 147 5,300 -341 Descending Houston Center
Sun 07:59:25 PM 29.8003 -96.1283 90° East 140 161 4,800 -439 Descending Houston Center
Sun 08:00:26 PM 29.8006 -96.0828 90° East 141 162 4,400 -443 Descending Houston Center
Sun 08:01:27 PM 29.8031 -96.0367 86° East 138 159 3,900 -443 Descending Houston Center
Sun 08:02:28 PM 29.8033 -95.9933 90° East 140 161 3,500 -393 Descending Houston Center
Sun 08:03:29 PM 29.8058 -95.9472 86° East 138 159 3,100 -393 Descending Houston Center
Sun 08:04:30 PM 29.8083 -95.9036 86° East 138 159 2,700 -393 Descending Houston Center

Login

Don't have an account? Register now (free) for customized features, flight alerts, and more!